Time;durP1;ratioP1;P1;durP2;ratioP2;P2;SDS_P1;SDS_P2;PMS_P1;PMS_P2;Temp;Humidity;BMP_temperature;BMP_pressure;BME280_temperature;BME280_humidity;BME280_pressure;Samples;Min_cycle;Max_cycle;Signal;HPM_P1;HPM_P2
2023/05/01 00:02:35;;;;;;;9.98;7.38;;;10.80;76.30;;;;;;5082304;28;20024;-48
2023/05/01 00:05:20;;;;;;;36.58;25.00;;;10.80;76.30;;;;;;5084876;28;20033;-46
2023/05/01 00:08:06;;;;;;;13.32;9.50;;;10.70;76.60;;;;;;5083802;28;20392;-49
2023/05/01 00:10:52;;;;;;;12.90;8.25;;;10.70;76.80;;;;;;5081613;28;20025;-45
2023/05/01 00:13:38;;;;;;;15.60;7.97;;;10.70;76.90;;;;;;5082946;28;20029;-44
2023/05/01 00:16:24;;;;;;;13.02;7.90;;;10.70;77.00;;;;;;5077415;28;20028;-45
2023/05/01 00:19:11;;;;;;;14.18;8.43;;;10.70;77.20;;;;;;5072767;28;20032;-46
2023/05/01 00:21:57;;;;;;;11.65;7.80;;;10.70;77.60;;;;;;5082217;28;20063;-48
2023/05/01 00:24:43;;;;;;;10.95;8.85;;;10.60;77.90;;;;;;5066747;28;20064;-49
2023/05/01 00:27:29;;;;;;;13.38;7.63;;;10.70;78.40;;;;;;5073016;28;20036;-45
2023/05/01 00:30:15;;;;;;;12.98;8.70;;;10.70;79.30;;;;;;5074028;28;20025;-45
2023/05/01 00:33:01;;;;;;;11.93;9.25;;;10.70;80.20;;;;;;5073050;28;20501;-46
2023/05/01 00:35:47;;;;;;;11.75;8.43;;;10.60;81.20;;;;;;5072859;28;20055;-45
2023/05/01 00:38:33;;;;;;;12.57;8.43;;;10.60;81.20;;;;;;5085673;28;20029;-46
2023/05/01 00:41:20;;;;;;;14.57;8.30;;;10.60;81.70;;;;;;5072932;28;20082;-45
2023/05/01 00:44:05;;;;;;;12.32;9.23;;;10.60;81.80;;;;;;5072778;28;20029;-48
2023/05/01 00:46:52;;;;;;;12.15;9.55;;;10.60;81.80;;;;;;5071623;28;20024;-51
2023/05/01 00:49:41;;;;;;;15.82;9.07;;;10.60;81.90;;;;;;5072487;28;20381;-47
2023/05/01 00:52:27;;;;;;;13.80;9.30;;;10.60;82.10;;;;;;5072860;28;20021;-45
2023/05/01 00:55:13;;;;;;;14.55;8.70;;;10.50;82.80;;;;;;5072587;28;20029;-50
2023/05/01 00:58:00;;;;;;;12.95;8.55;;;10.60;83.30;;;;;;5072197;28;20033;-47
2023/05/01 01:00:47;;;;;;;15.20;8.85;;;10.50;83.80;;;;;;5073657;28;20020;-48
2023/05/01 01:03:33;;;;;;;11.45;9.25;;;10.50;84.10;;;;;;5071628;28;20500;-46
2023/05/01 01:06:33;;;;;;;13.15;8.90;;;10.40;85.80;;;;;;5071838;28;20043;-51
2023/05/01 01:09:36;;;;;;;13.82;9.13;;;10.30;85.80;;;;;;5072093;28;20440;-50
2023/05/01 01:12:48;;;;;;;12.98;8.93;;;10.20;86.70;;;;;;5072195;28;20025;-47
2023/05/01 01:15:46;;;;;;;11.73;8.45;;;10.30;87.00;;;;;;5072662;28;20021;-47
2023/05/01 01:18:41;;;;;;;11.00;8.95;;;10.30;87.30;;;;;;5071798;28;20028;-45
2023/05/01 01:21:38;;;;;;;13.25;8.70;;;10.30;87.40;;;;;;5071988;28;20095;-46
2023/05/01 01:25:16;;;;;;;13.63;9.55;;;10.30;87.70;;;;;;5071193;28;20032;-44
2023/05/01 01:28:14;;;;;;;16.42;9.45;;;10.20;87.10;;;;;;5058322;28;20048;-45
2023/05/01 01:31:31;;;;;;;13.88;9.23;;;9.90;88.10;;;;;;5071673;28;20017;-46
2023/05/01 01:34:26;;;;;;;14.27;10.50;;;9.80;89.20;;;;;;5071868;28;20055;-47
2023/05/01 01:37:27;;;;;;;;;;;9.70;89.30;;;;;;5072963;28;20023;-45
2023/05/01 01:40:17;;;;;;;16.00;9.82;;;9.60;90.00;;;;;;5070773;28;19946;-46
2023/05/01 01:43:09;;;;;;;16.70;10.27;;;9.60;90.00;;;;;;5071816;28;20028;-45
2023/05/01 01:46:00;;;;;;;15.75;10.10;;;9.50;89.40;;;;;;5071991;28;20032;-45
2023/05/01 01:48:49;;;;;;;16.50;10.35;;;9.40;90.10;;;;;;5072563;28;20021;-45
2023/05/01 01:51:39;;;;;;;17.48;10.13;;;9.40;90.50;;;;;;5071898;28;20485;-45
2023/05/01 01:54:35;;;;;;;17.98;10.10;;;9.40;90.50;;;;;;5071945;28;20566;-45
2023/05/01 01:57:23;;;;;;;13.25;9.70;;;9.30;90.90;;;;;;5072246;28;20378;-46
2023/05/01 02:00:12;;;;;;;15.27;10.20;;;9.30;91.30;;;;;;5071162;28;20388;-45
2023/05/01 02:02:59;;;;;;;17.60;10.82;;;9.30;91.50;;;;;;5072359;28;20576;-45
2023/05/01 02:05:48;;;;;;;13.90;9.65;;;9.30;91.70;;;;;;5071097;28;20554;-48
2023/05/01 02:08:36;;;;;;;15.13;9.85;;;9.40;91.80;;;;;;5070901;28;20023;-45
2023/05/01 02:11:24;;;;;;;13.65;10.20;;;9.40;91.80;;;;;;5071202;28;20059;-44
2023/05/01 02:14:11;;;;;;;14.82;10.43;;;9.40;91.70;;;;;;5084833;28;20029;-44
2023/05/01 02:16:58;;;;;;;14.70;10.05;;;9.30;92.10;;;;;;5071706;28;20024;-45
2023/05/01 02:19:44;;;;;;;17.85;10.15;;;9.20;91.90;;;;;;5070981;28;20055;-47
2023/05/01 02:22:31;;;;;;;16.60;10.85;;;9.20;91.80;;;;;;5072258;28;20370;-46
2023/05/01 02:25:17;;;;;;;16.77;10.93;;;9.10;92.10;;;;;;5070197;28;20028;-46
2023/05/01 02:28:11;;;;;;;15.70;10.38;;;9.10;92.30;;;;;;5071319;28;20473;-45
2023/05/01 02:30:57;;;;;;;15.88;11.10;;;9.00;92.60;;;;;;5072112;28;20079;-51
2023/05/01 02:33:43;;;;;;;14.73;10.52;;;8.90;92.50;;;;;;5070381;28;20501;-45
2023/05/01 02:36:30;;;;;;;14.95;11.15;;;8.90;92.40;;;;;;5069757;28;20078;-45
2023/05/01 02:39:17;;;;;;;16.75;11.75;;;8.90;92.70;;;;;;5070858;28;20078;-45
2023/05/01 02:42:08;;;;;;;14.88;11.45;;;9.00;92.50;;;;;;5071083;28;20389;-47
2023/05/01 02:44:58;;;;;;;13.95;10.90;;;9.10;92.50;;;;;;5070881;28;20029;-45
2023/05/01 02:47:50;;;;;;;15.90;10.93;;;9.10;92.40;;;;;;5083476;28;20025;-45
2023/05/01 02:50:39;;;;;;;13.82;10.73;;;9.00;92.70;;;;;;5071931;28;20016;-46
2023/05/01 02:53:25;;;;;;;14.95;11.40;;;9.00;92.90;;;;;;5071877;28;20021;-47
2023/05/01 02:56:12;;;;;;;13.68;10.68;;;9.10;93.30;;;;;;5069036;28;20029;-46
2023/05/01 02:58:58;;;;;;;15.07;10.25;;;9.10;93.50;;;;;;5071288;28;20032;-47
2023/05/01 03:01:44;;;;;;;15.50;12.35;;;9.10;93.80;;;;;;5070962;28;20055;-46
2023/05/01 03:04:30;;;;;;;14.80;11.68;;;9.10;94.30;;;;;;5070597;28;20505;-46
2023/05/01 03:07:16;;;;;;;16.98;11.77;;;9.10;94.60;;;;;;5070978;28;20106;-48
2023/05/01 03:10:03;;;;;;;16.90;10.73;;;9.00;94.40;;;;;;5071061;28;20016;-45
2023/05/01 03:12:49;;;;;;;16.17;11.18;;;8.80;95.20;;;;;;5070677;28;20408;-44
2023/05/01 03:15:36;;;;;;;16.77;10.95;;;8.70;95.70;;;;;;5071142;28;20032;-48
2023/05/01 03:18:22;;;;;;;15.07;10.50;;;8.60;96.50;;;;;;5070341;28;20032;-46
2023/05/01 03:21:09;;;;;;;16.63;11.00;;;8.60;96.70;;;;;;5071098;28;20033;-45
2023/05/01 03:23:55;;;;;;;16.55;10.60;;;8.60;96.80;;;;;;5069044;28;20067;-48
2023/05/01 03:26:41;;;;;;;15.98;11.27;;;8.70;96.80;;;;;;5070919;28;20116;-47
2023/05/01 03:29:27;;;;;;;14.55;10.55;;;8.60;96.70;;;;;;5064774;28;20477;-46
2023/05/01 03:32:13;;;;;;;15.75;11.35;;;8.60;97.00;;;;;;5075625;28;20035;-46
2023/05/01 03:34:59;;;;;;;15.80;10.60;;;8.60;97.00;;;;;;5094875;28;20024;-45
2023/05/01 03:37:45;;;;;;;15.50;9.98;;;8.70;97.10;;;;;;5088938;28;20031;-47
2023/05/01 03:40:30;;;;;;;14.82;10.95;;;8.70;97.20;;;;;;5076731;28;20029;-47
2023/05/01 03:43:16;;;;;;;16.83;10.70;;;8.60;97.40;;;;;;5094184;28;20036;-47
2023/05/01 03:46:02;;;;;;;17.92;11.15;;;8.70;97.40;;;;;;5086068;28;20025;-46
2023/05/01 03:48:48;;;;;;;14.20;10.65;;;8.60;97.40;;;;;;5074940;28;20021;-46
2023/05/01 03:51:34;;;;;;;15.55;10.45;;;8.50;97.40;;;;;;5086356;28;20035;-49
2023/05/01 03:54:20;;;;;;;14.85;11.02;;;8.40;97.50;;;;;;5092683;28;20031;-49
2023/05/01 03:57:06;;;;;;;13.90;10.10;;;8.40;97.50;;;;;;5073832;28;20024;-45
2023/05/01 03:59:53;;;;;;;14.48;10.88;;;8.40;97.40;;;;;;5079978;28;20492;-45
2023/05/01 04:02:39;;;;;;;16.45;11.25;;;8.50;97.50;;;;;;5094161;28;20043;-45
2023/05/01 04:05:25;;;;;;;13.13;10.32;;;8.50;96.90;;;;;;5083576;28;20060;-45
2023/05/01 04:08:11;;;;;;;13.30;10.73;;;8.40;97.10;;;;;;5073730;28;20031;-45
2023/05/01 04:10:57;;;;;;;18.92;12.00;;;8.40;97.70;;;;;;5071326;28;20170;-46
2023/05/01 04:13:43;;;;;;;14.95;11.18;;;8.50;97.30;;;;;;5086618;28;20035;-46
2023/05/01 04:16:30;;;;;;;13.20;10.18;;;8.50;97.10;;;;;;5073510;28;20059;-45
2023/05/01 04:19:16;;;;;;;16.63;10.73;;;8.50;96.60;;;;;;5082735;28;20373;-48
2023/05/01 04:22:02;;;;;;;16.65;11.18;;;8.60;96.60;;;;;;5093595;28;20028;-46
2023/05/01 04:24:48;;;;;;;20.85;10.82;;;8.70;96.80;;;;;;5077910;28;20405;-46
2023/05/01 04:27:34;;;;;;;19.05;10.68;;;8.50;96.10;;;;;;5073822;28;20036;-46
2023/05/01 04:30:20;;;;;;;16.48;11.90;;;8.60;96.60;;;;;;5092992;28;20419;-46
2023/05/01 04:33:10;;;;;;;16.83;12.23;;;8.60;96.60;;;;;;5083474;28;20500;-46
2023/05/01 04:35:56;;;;;;;16.92;12.05;;;8.50;96.70;;;;;;5074205;28;20417;-46
2023/05/01 04:38:42;;;;;;;19.38;11.20;;;8.50;96.90;;;;;;5087135;28;20027;-48
2023/05/01 04:41:28;;;;;;;17.20;9.90;;;8.50;96.90;;;;;;5093081;28;20028;-46
2023/05/01 04:44:14;;;;;;;15.90;10.68;;;8.60;96.90;;;;;;5072479;28;20090;-47
2023/05/01 04:47:04;;;;;;;13.10;9.32;;;8.70;97.00;;;;;;5073156;28;20029;-48
2023/05/01 04:49:50;;;;;;;16.25;10.02;;;8.80;96.80;;;;;;5072729;28;20032;-47
2023/05/01 04:52:36;;;;;;;15.68;11.30;;;8.80;96.90;;;;;;5088907;28;20077;-49
2023/05/01 04:55:22;;;;;;;15.63;10.65;;;8.90;97.00;;;;;;5077714;28;20547;-46
2023/05/01 04:58:08;;;;;;;15.30;10.52;;;8.80;97.40;;;;;;5073039;28;20035;-44
2023/05/01 05:00:54;;;;;;;15.18;10.40;;;8.90;97.90;;;;;;5078020;28;20028;-45
2023/05/01 05:03:41;;;;;;;15.13;10.60;;;9.00;98.20;;;;;;5093051;28;20032;-48
2023/05/01 05:06:27;;;;;;;12.88;10.10;;;9.10;98.10;;;;;;5080532;28;20133;-47
2023/05/01 05:09:13;;;;;;;14.20;10.40;;;9.10;97.80;;;;;;5073687;28;20029;-51
2023/05/01 05:11:59;;;;;;;14.48;9.68;;;9.20;97.90;;;;;;5091304;28;20024;-48
2023/05/01 05:14:46;;;;;;;16.20;11.95;;;9.30;97.40;;;;;;5093465;28;20060;-47
2023/05/01 05:17:32;;;;;;;17.70;10.73;;;9.30;97.80;;;;;;5052050;28;20040;-46
2023/05/01 05:20:18;;;;;;;15.85;10.73;;;9.40;97.40;;;;;;5073490;28;20044;-47
2023/05/01 05:23:04;;;;;;;14.85;10.85;;;9.40;97.30;;;;;;5072833;28;20082;-47
2023/05/01 05:25:50;;;;;;;15.90;10.52;;;9.50;97.10;;;;;;5077025;28;20075;-51
2023/05/01 05:28:36;;;;;;;13.95;10.95;;;9.50;96.80;;;;;;5076585;28;20052;-45
2023/05/01 05:31:22;;;;;;;16.05;10.55;;;9.60;96.50;;;;;;5093261;28;20031;-49
2023/05/01 05:34:08;;;;;;;16.90;11.88;;;9.70;96.30;;;;;;5085097;28;20024;-45
2023/05/01 05:36:54;;;;;;;14.65;10.40;;;9.70;95.90;;;;;;5072486;28;20025;-52
2023/05/01 05:39:40;;;;;;;17.42;12.23;;;9.80;95.70;;;;;;5083922;28;20024;-52
2023/05/01 05:42:26;;;;;;;17.17;11.02;;;9.70;95.80;;;;;;5088445;28;20459;-50
2023/05/01 05:45:12;;;;;;;18.58;12.30;;;9.70;95.90;;;;;;5072714;28;20673;-49
2023/05/01 05:47:58;;;;;;;15.65;11.82;;;9.70;95.50;;;;;;5064571;28;20107;-46
2023/05/01 05:50:44;;;;;;;18.52;13.05;;;9.80;94.90;;;;;;5090291;28;20488;-48
2023/05/01 05:53:30;;;;;;;19.40;15.35;;;9.90;94.40;;;;;;5081013;28;20040;-48
2023/05/01 05:56:16;;;;;;;22.55;16.02;;;10.00;93.90;;;;;;5072454;28;20062;-49
2023/05/01 05:59:03;;;;;;;20.65;14.68;;;10.10;93.30;;;;;;5086637;28;20024;-47
2023/05/01 06:01:49;;;;;;;19.90;14.23;;;10.20;93.00;;;;;;5085380;28;20034;-45
2023/05/01 06:04:35;;;;;;;19.80;15.25;;;10.40;92.30;;;;;;5072013;28;20078;-45
2023/05/01 06:07:21;;;;;;;22.55;16.90;;;10.60;92.00;;;;;;5081428;28;20047;-45
2023/05/01 06:10:08;;;;;;;26.55;16.42;;;10.60;91.10;;;;;;5092801;28;20020;-47
2023/05/01 06:12:54;;;;;;;20.10;16.50;;;10.60;90.80;;;;;;5088790;28;20449;-49
2023/05/01 06:15:40;;;;;;;19.83;15.60;;;10.60;90.80;;;;;;5070992;28;20047;-48
2023/05/01 06:18:26;;;;;;;20.23;15.43;;;10.60;90.90;;;;;;5071513;28;20381;-46
2023/05/01 06:21:12;;;;;;;19.83;16.92;;;10.60;90.70;;;;;;5092250;28;20114;-48
2023/05/01 06:23:58;;;;;;;20.50;15.48;;;10.70;90.40;;;;;;5078569;28;20036;-46
2023/05/01 06:26:44;;;;;;;18.15;15.93;;;10.80;90.70;;;;;;5091365;28;20033;-45
2023/05/01 06:29:30;;;;;;;19.73;15.02;;;10.70;90.40;;;;;;5084796;28;20122;-48
2023/05/01 06:32:16;;;;;;;19.10;15.57;;;10.60;90.40;;;;;;5079404;28;20028;-49
2023/05/01 06:35:02;;;;;;;21.42;16.83;;;10.60;90.40;;;;;;5066419;28;20511;-47
2023/05/01 06:37:48;;;;;;;18.08;14.57;;;10.60;90.50;;;;;;5064147;28;20029;-50
2023/05/01 06:40:34;;;;;;;21.40;15.13;;;10.60;90.90;;;;;;5082504;28;20028;-46
2023/05/01 06:43:20;;;;;;;19.80;14.40;;;10.70;90.90;;;;;;5091062;28;20024;-50
2023/05/01 06:46:06;;;;;;;21.58;14.60;;;10.80;91.30;;;;;;5073786;28;20089;-48
2023/05/01 06:48:52;;;;;;;16.95;13.45;;;10.90;90.90;;;;;;5050895;28;20052;-47
2023/05/01 06:51:37;;;;;;;39.70;26.50;;;11.10;90.80;;;;;;5090070;28;20028;-46
2023/05/01 06:54:23;;;;;;;51.33;32.75;;;11.30;90.60;;;;;;5091059;28;20028;-48
2023/05/01 06:57:09;;;;;;;31.38;20.48;;;11.50;90.50;;;;;;5078202;28;20025;-47
2023/05/01 06:59:55;;;;;;;34.70;24.48;;;11.70;90.30;;;;;;5091862;28;20047;-50
2023/05/01 07:02:41;;;;;;;30.48;21.10;;;11.80;90.20;;;;;;5093583;28;20062;-46
2023/05/01 07:05:27;;;;;;;19.40;14.70;;;12.00;90.20;;;;;;5094575;28;20068;-47
2023/05/01 07:08:13;;;;;;;20.73;14.13;;;11.90;89.70;;;;;;5095182;28;20028;-47
2023/05/01 07:10:59;;;;;;;15.32;13.63;;;11.90;89.80;;;;;;5094299;28;20055;-47
2023/05/01 07:13:45;;;;;;;23.65;14.68;;;12.00;89.80;;;;;;5074853;28;20021;-45
2023/05/01 07:16:31;;;;;;;19.92;15.02;;;12.00;89.10;;;;;;5095011;28;20032;-51
2023/05/01 07:19:17;;;;;;;45.28;29.80;;;12.00;89.30;;;;;;5094084;28;20027;-50
2023/05/01 07:22:03;;;;;;;37.00;24.23;;;12.00;89.60;;;;;;5094868;28;20038;-49
2023/05/01 07:24:49;;;;;;;21.75;15.93;;;12.00;88.30;;;;;;5092526;28;20040;-47
2023/05/01 07:27:35;;;;;;;20.33;15.15;;;11.90;89.00;;;;;;5074981;28;20066;-48
2023/05/01 07:30:21;;;;;;;20.98;16.42;;;12.00;88.70;;;;;;5079794;28;20048;-47
2023/05/01 07:33:07;;;;;;;24.85;15.00;;;11.80;88.50;;;;;;5082529;28;20028;-46
2023/05/01 07:35:53;;;;;;;24.90;18.83;;;11.80;89.00;;;;;;5074653;28;20578;-46
2023/05/01 07:38:39;;;;;;;30.08;21.25;;;12.00;88.50;;;;;;5079570;28;20032;-45
2023/05/01 07:41:25;;;;;;;22.38;16.67;;;12.20;88.30;;;;;;5086546;28;20040;-47
2023/05/01 07:44:12;;;;;;;18.85;15.07;;;12.10;88.40;;;;;;5090338;28;20024;-47
2023/05/01 07:47:05;;;;;;;21.17;15.77;;;12.40;88.50;;;;;;5080552;28;20044;-47
2023/05/01 07:49:51;;;;;;;23.55;16.65;;;12.50;88.60;;;;;;5075516;28;20446;-47
2023/05/01 07:52:37;;;;;;;22.67;15.25;;;12.70;87.80;;;;;;5073047;28;20024;-50
2023/05/01 07:55:24;;;;;;;20.83;15.18;;;12.90;88.10;;;;;;5092831;28;20534;-45
2023/05/01 07:58:09;;;;;;;22.83;15.82;;;13.00;88.90;;;;;;5093229;28;20031;-47
2023/05/01 08:00:55;;;;;;;21.13;17.35;;;13.10;88.50;;;;;;5071536;28;20032;-50
2023/05/01 08:03:41;;;;;;;20.42;16.75;;;12.90;86.60;;;;;;5076347;28;20032;-48
2023/05/01 08:06:28;;;;;;;22.80;17.17;;;12.90;86.70;;;;;;5072850;28;20118;-46
2023/05/01 08:09:15;;;;;;;18.23;15.55;;;13.00;86.00;;;;;;5070234;28;20029;-49
2023/05/01 08:12:02;;;;;;;54.65;37.67;;;13.20;86.10;;;;;;5069414;28;20086;-52
2023/05/01 08:14:48;;;;;;;29.52;20.85;;;13.10;85.50;;;;;;5070603;28;20029;-52
2023/05/01 08:17:35;;;;;;;21.70;16.95;;;13.20;85.10;;;;;;5071948;28;20035;-50
2023/05/01 08:20:21;;;;;;;21.35;16.05;;;13.50;84.50;;;;;;5073438;28;20024;-51
2023/05/01 08:23:07;;;;;;;21.42;15.90;;;13.70;84.50;;;;;;5074323;28;20032;-49
2023/05/01 08:25:53;;;;;;;22.70;15.63;;;13.70;82.60;;;;;;5073348;28;20485;-47
2023/05/01 08:28:38;;;;;;;22.92;14.98;;;13.90;82.00;;;;;;5056833;28;20509;-51
2023/05/01 08:31:25;;;;;;;21.60;15.95;;;14.20;81.50;;;;;;5078588;28;20104;-50
2023/05/01 08:34:10;;;;;;;26.42;19.30;;;14.30;80.70;;;;;;5084922;28;20058;-51
2023/05/01 08:36:58;;;;;;;21.80;15.48;;;14.20;80.90;;;;;;5073173;28;20039;-46
2023/05/01 08:39:44;;;;;;;20.50;15.75;;;14.20;80.90;;;;;;5066854;28;20039;-47
2023/05/01 08:42:30;;;;;;;20.45;15.80;;;14.20;81.10;;;;;;5079206;28;20170;-48
2023/05/01 08:45:20;;;;;;;20.52;16.10;;;14.20;81.20;;;;;;5071918;28;20489;-47
2023/05/01 08:48:06;;;;;;;23.35;17.67;;;14.40;81.90;;;;;;5071329;28;20036;-46
2023/05/01 08:50:56;;;;;;;19.17;15.95;;;14.70;83.80;;;;;;5069976;28;20029;-47
2023/05/01 08:53:43;;;;;;;22.30;16.80;;;14.90;83.00;;;;;;5077423;28;20090;-47
2023/05/01 08:56:30;;;;;;;19.15;15.93;;;15.10;82.70;;;;;;5080794;28;20032;-46
2023/05/01 08:59:18;;;;;;;18.02;15.15;;;15.30;82.20;;;;;;5078613;28;20032;-49
2023/05/01 09:02:06;;;;;;;21.13;18.13;;;15.40;82.20;;;;;;5074931;28;20078;-50
2023/05/01 09:04:53;;;;;;;22.23;16.50;;;15.50;81.90;;;;;;5081677;28;20028;-48
2023/05/01 09:07:41;;;;;;;20.83;14.93;;;15.60;81.70;;;;;;5082065;28;20043;-49
2023/05/01 09:10:28;;;;;;;18.67;15.02;;;15.80;80.80;;;;;;5072425;28;20531;-46
2023/05/01 09:13:14;;;;;;;23.58;18.10;;;16.00;80.10;;;;;;5072340;28;20478;-46
2023/05/01 09:16:00;;;;;;;24.08;18.60;;;16.10;81.30;;;;;;5071870;28;20025;-45
2023/05/01 09:18:46;;;;;;;24.58;19.45;;;16.20;80.90;;;;;;5069999;28;20044;-54
2023/05/01 09:21:32;;;;;;;24.15;18.55;;;16.00;80.50;;;;;;5068231;28;20111;-49
2023/05/01 09:24:18;;;;;;;21.50;18.13;;;15.90;80.60;;;;;;5082882;28;20080;-47
2023/05/01 09:27:05;;;;;;;22.75;17.70;;;15.80;82.00;;;;;;5072691;28;20031;-45
2023/05/01 09:29:51;;;;;;;23.42;18.65;;;15.90;82.20;;;;;;5085695;28;20501;-51
2023/05/01 09:32:37;;;;;;;20.23;16.85;;;15.90;81.30;;;;;;5071947;28;20035;-46
2023/05/01 09:35:23;;;;;;;19.75;16.35;;;15.90;81.30;;;;;;5068795;28;20036;-48
2023/05/01 09:38:09;;;;;;;18.98;15.10;;;15.80;81.50;;;;;;5074476;28;20036;-47
2023/05/01 09:41:05;;;;;;;24.20;16.13;;;15.80;81.10;;;;;;5067258;28;20618;-47
2023/05/01 09:43:52;;;;;;;21.27;16.60;;;16.10;80.30;;;;;;5087847;28;20039;-45
2023/05/01 09:46:42;;;;;;;24.73;16.90;;;16.20;80.10;;;;;;5082385;28;20040;-44
2023/05/01 09:49:45;;;;;;;26.95;17.48;;;16.40;81.10;;;;;;5088820;28;20456;-45
2023/05/01 09:52:34;;;;;;;26.40;18.65;;;16.50;80.10;;;;;;5067905;28;20123;-46
2023/05/01 09:55:22;;;;;;;21.95;17.42;;;16.40;81.30;;;;;;5083392;28;20032;-47
2023/05/01 09:58:26;;;;;;;22.30;16.48;;;16.50;80.40;;;;;;5088870;28;20042;-45
2023/05/01 10:01:13;;;;;;;17.77;15.00;;;16.70;80.80;;;;;;5060053;28;20024;-43
2023/05/01 10:03:59;;;;;;;21.20;16.38;;;16.90;79.40;;;;;;5084910;28;20423;-49
2023/05/01 10:06:45;;;;;;;18.23;15.68;;;17.10;79.80;;;;;;5072911;28;20397;-45
2023/05/01 10:09:31;;;;;;;20.83;16.33;;;17.40;80.70;;;;;;5071625;28;20622;-45
2023/05/01 10:12:25;;;;;;;19.88;15.27;;;17.50;78.40;;;;;;5089963;28;20032;-44
2023/05/01 10:15:12;;;;;;;22.05;16.77;;;17.50;77.80;;;;;;5091053;28;20411;-45
2023/05/01 10:17:58;;;;;;;19.25;16.30;;;17.60;78.20;;;;;;5091453;28;20039;-50
2023/05/01 10:20:44;;;;;;;22.30;17.00;;;17.70;78.10;;;;;;5086141;28;20035;-49
2023/05/01 10:23:32;;;;;;;24.23;16.48;;;17.50;77.60;;;;;;5072879;28;20037;-46
2023/05/01 10:26:18;;;;;;;20.63;16.23;;;17.20;77.50;;;;;;5080936;28;20077;-46
2023/05/01 10:29:04;;;;;;;17.88;13.55;;;17.30;77.80;;;;;;5089400;28;20027;-44
2023/05/01 10:31:50;;;;;;;18.60;14.65;;;17.30;77.70;;;;;;5057279;28;20028;-45
2023/05/01 10:34:44;;;;;;;19.00;14.98;;;17.30;76.10;;;;;;5069301;28;20016;-46
2023/05/01 10:37:40;;;;;;;16.73;12.93;;;17.20;75.20;;;;;;5068437;28;20056;-46
2023/05/01 10:40:38;;;;;;;15.63;12.55;;;17.20;76.20;;;;;;5066582;28;20075;-44
2023/05/01 10:43:28;;;;;;;15.40;12.65;;;17.40;76.20;;;;;;5067240;28;20404;-45
2023/05/01 10:46:20;;;;;;;18.25;12.57;;;17.50;75.30;;;;;;5052866;28;20086;-46
2023/05/01 10:49:06;;;;;;;16.10;11.73;;;17.60;75.40;;;;;;5057742;28;20013;-44
2023/05/01 10:52:02;;;;;;;15.90;11.95;;;17.70;75.60;;;;;;5090219;28;20024;-45
2023/05/01 10:54:48;;;;;;;16.88;12.82;;;17.90;75.00;;;;;;5081447;28;20024;-45
2023/05/01 10:57:43;;;;;;;14.05;12.15;;;17.90;74.80;;;;;;5087827;28;20047;-43
2023/05/01 11:00:29;;;;;;;14.90;12.13;;;17.70;74.20;;;;;;5076895;28;20035;-45
2023/05/01 11:03:21;;;;;;;15.73;11.68;;;17.70;73.90;;;;;;5075855;28;20475;-47
2023/05/01 11:06:07;;;;;;;14.35;11.30;;;17.80;73.80;;;;;;5070624;28;20028;-46
2023/05/01 11:08:53;;;;;;;14.05;11.18;;;18.00;73.40;;;;;;5071414;28;20772;-44
2023/05/01 11:11:42;;;;;;;14.52;11.35;;;18.00;73.20;;;;;;5076407;28;20108;-52
2023/05/01 11:14:51;;;;;;;12.52;11.05;;;18.10;73.20;;;;;;5090126;28;20392;-44
2023/05/01 11:17:42;;;;;;;14.98;11.90;;;18.20;73.70;;;;;;5051712;28;20378;-44
2023/05/01 11:20:34;;;;;;;14.20;11.55;;;18.30;73.10;;;;;;5068913;28;20021;-48
2023/05/01 11:23:24;;;;;;;12.70;10.00;;;18.40;72.80;;;;;;5071585;28;20012;-47
2023/05/01 11:26:10;;;;;;;13.27;10.77;;;18.30;72.60;;;;;;5089485;28;20081;-53
2023/05/01 11:29:00;;;;;;;14.50;10.30;;;18.20;72.60;;;;;;5076485;28;20206;-49
2023/05/01 11:31:47;;;;;;;13.07;9.82;;;18.30;72.60;;;;;;5079834;28;20040;-51
2023/05/01 11:34:36;;;;;;;12.07;10.05;;;18.30;72.40;;;;;;5069954;28;20025;-44
2023/05/01 11:37:45;;;;;;;14.65;10.52;;;18.60;71.50;;;;;;5072437;28;20404;-47
2023/05/01 11:40:33;;;;;;;13.55;10.43;;;18.70;72.10;;;;;;5066423;28;20047;-49
2023/05/01 11:43:19;;;;;;;10.98;9.32;;;18.80;71.90;;;;;;5069958;28;20078;-46
2023/05/01 11:46:05;;;;;;;14.63;10.25;;;19.00;72.10;;;;;;5068219;28;20029;-44
2023/05/01 11:48:51;;;;;;;13.50;9.73;;;18.90;70.90;;;;;;5091948;28;20103;-45
2023/05/01 11:51:37;;;;;;;14.50;9.20;;;18.90;70.90;;;;;;5083734;28;20497;-45
2023/05/01 11:54:23;;;;;;;12.35;9.35;;;19.00;70.40;;;;;;5084910;28;20447;-45
2023/05/01 11:57:09;;;;;;;12.68;9.20;;;19.00;69.70;;;;;;5064662;28;20111;-46
2023/05/01 11:59:56;;;;;;;15.40;9.48;;;18.80;69.20;;;;;;5065846;28;20390;-46
2023/05/01 12:02:58;;;;;;;11.98;9.90;;;18.90;70.40;;;;;;5048888;28;20025;-43
2023/05/01 12:05:44;;;;;;;13.55;9.45;;;18.90;71.80;;;;;;5072700;28;20025;-44
2023/05/01 12:08:30;;;;;;;11.68;9.70;;;19.10;70.30;;;;;;5085272;28;20029;-45
2023/05/01 12:11:19;;;;;;;12.93;8.98;;;19.20;69.50;;;;;;5078040;28;20036;-45
2023/05/01 12:14:06;;;;;;;11.50;9.27;;;19.20;69.10;;;;;;5094546;28;20024;-44
2023/05/01 12:16:52;;;;;;;12.55;9.43;;;19.10;69.10;;;;;;5091828;28;20476;-48
2023/05/01 12:19:47;;;;;;;11.55;9.00;;;18.90;69.00;;;;;;5088097;28;20513;-44
2023/05/01 12:22:33;;;;;;;13.38;8.73;;;19.00;69.80;;;;;;5082342;28;20032;-47
2023/05/01 12:25:19;;;;;;;10.38;8.05;;;19.20;68.50;;;;;;5072015;28;20036;-44
2023/05/01 12:28:10;;;;;;;11.02;8.40;;;19.40;67.50;;;;;;5071970;28;20455;-48
2023/05/01 12:31:01;;;;;;;11.07;8.32;;;19.40;67.50;;;;;;5070472;28;20021;-47
2023/05/01 12:34:03;;;;;;;10.85;7.95;;;19.50;67.10;;;;;;5071833;28;20021;-46
2023/05/01 12:36:53;;;;;;;10.73;8.00;;;19.70;67.00;;;;;;5082530;28;20111;-46
2023/05/01 12:39:43;;;;;;;10.80;7.82;;;19.80;65.80;;;;;;5078962;28;20461;-44
2023/05/01 12:42:29;;;;;;;10.20;8.15;;;19.60;65.10;;;;;;5069480;28;20033;-47
2023/05/01 12:45:15;;;;;;;12.52;8.50;;;19.60;66.30;;;;;;5066950;28;20025;-45
2023/05/01 12:48:01;;;;;;;10.13;7.75;;;19.60;66.30;;;;;;5051700;28;20025;-45
2023/05/01 12:50:53;;;;;;;10.10;7.47;;;19.80;66.10;;;;;;5064505;28;20028;-44
2023/05/01 12:53:43;;;;;;;13.52;8.23;;;20.00;65.90;;;;;;5072443;28;20021;-47
2023/05/01 12:56:29;;;;;;;10.43;7.88;;;19.90;64.60;;;;;;5070798;28;20021;-52
2023/05/01 12:59:21;;;;;;;8.93;7.30;;;19.70;64.30;;;;;;5066808;28;20455;-48
2023/05/01 13:02:10;;;;;;;12.23;7.80;;;19.80;64.80;;;;;;5072146;28;20100;-46
2023/05/01 13:05:10;;;;;;;10.90;7.38;;;19.50;64.10;;;;;;5081742;28;20024;-44
2023/05/01 13:07:57;;;;;;;10.18;7.43;;;19.50;64.00;;;;;;5092050;28;20021;-45
2023/05/01 13:10:43;;;;;;;10.73;7.43;;;19.60;64.40;;;;;;5090912;28;20028;-46
2023/05/01 13:13:34;;;;;;;12.55;7.70;;;19.80;64.70;;;;;;5071638;28;20025;-45
2023/05/01 13:16:21;;;;;;;10.07;7.80;;;20.00;64.50;;;;;;5074419;28;20035;-46
2023/05/01 13:19:07;;;;;;;7.50;6.38;;;20.10;64.20;;;;;;5092053;28;20497;-46
2023/05/01 13:21:55;;;;;;;10.32;7.30;;;20.20;63.70;;;;;;5090413;28;20055;-45
2023/05/01 13:24:43;;;;;;;9.43;6.70;;;20.40;64.00;;;;;;5072831;28;20036;-46
2023/05/01 13:27:29;;;;;;;10.77;7.28;;;20.40;63.60;;;;;;5084276;28;20025;-45
2023/05/01 13:30:29;;;;;;;9.77;8.20;;;20.50;63.30;;;;;;5063926;28;20017;-43
2023/05/01 13:33:15;;;;;;;8.38;7.55;;;20.60;62.70;;;;;;5066714;28;20033;-45
2023/05/01 13:36:02;;;;;;;10.45;6.93;;;20.70;62.80;;;;;;5057122;28;20024;-44
2023/05/01 13:38:50;;;;;;;11.00;7.40;;;20.70;62.80;;;;;;5065563;28;20029;-49
2023/05/01 13:41:41;;;;;;;7.80;6.95;;;20.80;62.70;;;;;;5073754;28;20036;-47
2023/05/01 13:44:28;;;;;;;9.02;7.00;;;20.80;62.60;;;;;;5073966;28;20036;-45
2023/05/01 13:47:16;;;;;;;8.75;7.38;;;20.90;61.50;;;;;;5065093;28;20044;-43
2023/05/01 13:50:02;;;;;;;8.57;6.40;;;20.70;61.00;;;;;;5078288;28;20027;-48
2023/05/01 13:52:48;;;;;;;8.50;7.13;;;20.80;61.40;;;;;;5092639;28;20036;-48
2023/05/01 13:55:37;;;;;;;8.52;6.50;;;20.70;62.00;;;;;;5059837;28;20122;-44
2023/05/01 13:58:23;;;;;;;9.88;7.72;;;20.80;62.50;;;;;;5073524;28;20082;-45
2023/05/01 14:01:19;;;;;;;9.20;6.70;;;20.80;62.00;;;;;;5069512;28;20028;-45
2023/05/01 14:04:09;;;;;;;9.18;7.40;;;20.50;61.50;;;;;;5064930;28;20064;-48
2023/05/01 14:06:55;;;;;;;10.35;7.60;;;20.40;61.40;;;;;;5062458;28;20028;-44
2023/05/01 14:09:44;;;;;;;9.65;7.30;;;20.20;61.50;;;;;;5061766;28;20037;-45
2023/05/01 14:12:31;;;;;;;8.55;7.00;;;20.10;61.30;;;;;;5063682;28;20037;-46
2023/05/01 14:15:17;;;;;;;8.40;7.18;;;20.10;61.20;;;;;;5071350;28;20033;-50
2023/05/01 14:18:06;;;;;;;11.38;8.30;;;20.10;61.30;;;;;;5056083;28;20036;-50
2023/05/01 14:20:52;;;;;;;8.25;7.28;;;20.20;62.80;;;;;;5066137;28;20032;-45